Time;durP1;ratioP1;P1;durP2;ratioP2;P2;SDS_P1;SDS_P2;PMS_P1;PMS_P2;Temp;Humidity;BMP_temperature;BMP_pressure;BME280_temperature;BME280_humidity;BME280_pressure;Samples;Min_cycle;Max_cycle;Signal;HPM_P1;HPM_P2
2022/11/20 00:01:30;;;;;;;30.87;15.60;;;8.10;58.30;;;;;;5071638;27;20445;-86
2022/11/20 00:03:58;;;;;;;51.37;19.57;;;8.20;58.20;;;;;;5096003;27;21227;-85
2022/11/20 00:06:26;;;;;;;33.70;16.97;;;8.20;57.90;;;;;;5095567;27;20470;-89
2022/11/20 00:08:55;;;;;;;49.30;21.33;;;8.20;57.60;;;;;;5096618;27;20500;-87
2022/11/20 00:11:24;;;;;;;56.80;20.60;;;8.10;57.70;;;;;;5112646;27;20475;-85
2022/11/20 00:13:53;;;;;;;40.37;16.80;;;8.00;58.20;;;;;;5116151;27;20454;-86
2022/11/20 00:16:22;;;;;;;38.10;18.30;;;7.70;58.90;;;;;;5116006;27;20544;-86
2022/11/20 00:18:51;;;;;;;36.00;16.83;;;7.70;59.20;;;;;;5104954;27;20450;-88
2022/11/20 00:21:19;;;;;;;33.17;16.80;;;7.70;59.00;;;;;;5096269;27;20449;-87
2022/11/20 00:23:46;;;;;;;39.97;19.17;;;7.70;58.90;;;;;;5096645;27;20537;-86
2022/11/20 00:26:15;;;;;;;51.77;22.37;;;7.90;58.80;;;;;;5082679;27;20884;-85
2022/11/20 00:28:44;;;;;;;41.67;18.90;;;7.90;58.50;;;;;;5103645;27;20555;-86
2022/11/20 00:31:12;;;;;;;43.80;18.23;;;7.90;58.50;;;;;;5094276;27;20463;-85
2022/11/20 00:33:40;;;;;;;59.97;24.50;;;8.00;58.30;;;;;;5097998;27;20449;-85
2022/11/20 00:36:10;;;;;;;26.27;13.70;;;8.00;58.10;;;;;;5094424;28;20999;-87
2022/11/20 00:38:37;;;;;;;36.03;17.60;;;7.80;58.90;;;;;;5114406;27;20442;-86
2022/11/20 00:41:06;;;;;;;35.13;17.30;;;7.50;58.80;;;;;;5096912;27;20443;-86
2022/11/20 00:43:33;;;;;;;41.57;17.90;;;7.40;59.30;;;;;;5114665;27;20434;-87
2022/11/20 00:46:01;;;;;;;39.10;17.20;;;7.30;59.30;;;;;;5095979;27;20466;-85
2022/11/20 00:48:29;;;;;;;36.93;15.90;;;7.40;59.30;;;;;;5099470;27;20621;-86
2022/11/20 00:50:56;;;;;;;36.27;15.97;;;7.50;59.00;;;;;;5112541;27;20965;-84
2022/11/20 00:53:25;;;;;;;31.10;16.30;;;7.50;59.40;;;;;;5095094;27;20470;-86
2022/11/20 00:55:56;;;;;;;32.43;15.10;;;7.70;59.00;;;;;;5094441;27;20469;-85
2022/11/20 00:58:24;;;;;;;31.27;15.97;;;7.80;59.20;;;;;;5078837;27;20458;-85
2022/11/20 01:00:51;;;;;;;39.10;18.47;;;7.70;59.30;;;;;;5113652;27;20457;-86
2022/11/20 01:03:18;;;;;;;32.33;15.07;;;7.60;59.80;;;;;;5115003;27;20451;-89
2022/11/20 01:05:46;;;;;;;31.57;15.47;;;7.70;59.20;;;;;;5114781;27;20513;-87
2022/11/20 01:08:13;;;;;;;34.73;17.67;;;7.70;59.30;;;;;;5112464;27;20482;-87
2022/11/20 01:10:41;;;;;;;31.77;15.60;;;7.50;59.50;;;;;;5112532;27;21230;-87
2022/11/20 01:15:53;;;;;;;33.83;16.47;;;7.40;59.00;;;;;;5097512;27;20521;-86
2022/11/20 01:18:20;;;;;;;33.30;15.90;;;7.40;59.30;;;;;;5094472;27;20510;-87
2022/11/20 01:20:47;;;;;;;29.87;16.00;;;7.50;59.50;;;;;;5086786;27;20438;-89
2022/11/20 01:23:14;;;;;;;29.47;14.47;;;7.40;59.10;;;;;;5074511;28;21050;-88
2022/11/20 01:25:42;;;;;;;29.53;15.40;;;7.50;59.40;;;;;;5115777;27;20591;-85
2022/11/20 01:28:09;;;;;;;34.23;16.47;;;7.70;59.40;;;;;;5110923;27;20450;-86
2022/11/20 01:30:36;;;;;;;36.63;16.50;;;7.70;59.20;;;;;;5076391;27;20545;-86
2022/11/20 01:33:03;;;;;;;31.83;16.00;;;7.80;59.00;;;;;;5098686;28;20477;-86
2022/11/20 01:35:30;;;;;;;31.33;16.50;;;7.90;58.70;;;;;;5115254;27;20451;-85
2022/11/20 01:37:57;;;;;;;34.33;16.70;;;7.80;58.20;;;;;;5095321;28;20460;-85
2022/11/20 01:40:24;;;;;;;34.70;16.07;;;7.60;58.50;;;;;;5075447;27;20464;-87
2022/11/20 01:43:22;;;;;;;32.40;14.77;;;7.60;58.80;;;;;;5112991;27;20808;-85
2022/11/20 01:46:05;;;;;;;29.63;15.03;;;7.80;58.80;;;;;;5096672;27;20473;-85
2022/11/20 01:48:38;;;;;;;33.63;15.27;;;7.80;58.60;;;;;;5085311;27;20438;-85
2022/11/20 01:51:07;;;;;;;31.93;16.63;;;7.80;58.80;;;;;;5092749;28;20886;-87
2022/11/20 01:53:37;;;;;;;40.83;17.97;;;7.70;59.30;;;;;;5112796;27;22342;-86
2022/11/20 01:56:08;;;;;;;36.90;16.20;;;7.80;59.20;;;;;;5094125;28;21342;-85
2022/11/20 01:58:43;;;;;;;42.83;20.27;;;7.60;59.40;;;;;;5114630;27;21114;-86
2022/11/20 02:01:10;;;;;;;40.73;18.97;;;7.50;59.60;;;;;;5110424;27;20888;-87
2022/11/20 02:03:37;;;;;;;41.03;18.43;;;7.50;59.90;;;;;;5115965;27;20464;-85
2022/11/20 02:06:11;;;;;;;39.57;17.40;;;7.50;59.80;;;;;;5097487;27;20852;-84
2022/11/20 02:08:39;;;;;;;39.33;17.40;;;7.40;60.00;;;;;;5095016;27;20453;-85
2022/11/20 02:11:07;;;;;;;34.20;16.17;;;7.50;59.70;;;;;;5096488;27;20452;-85
2022/11/20 02:13:44;;;;;;;40.20;18.37;;;7.60;59.20;;;;;;5095130;27;20469;-87
2022/11/20 02:16:16;;;;;;;34.63;16.20;;;7.50;59.10;;;;;;5097035;27;20476;-85
2022/11/20 02:18:44;;;;;;;35.90;16.77;;;7.40;59.50;;;;;;5114411;27;20475;-87
2022/11/20 02:21:21;;;;;;;35.13;17.80;;;7.30;59.60;;;;;;5087912;27;20993;-85
2022/11/20 02:24:07;;;;;;;35.73;16.70;;;7.20;60.00;;;;;;5116943;27;20461;-86
2022/11/20 02:26:40;;;;;;;32.40;15.10;;;7.30;60.00;;;;;;5096331;27;20558;-86
2022/11/20 02:29:07;;;;;;;32.80;15.57;;;7.40;59.80;;;;;;5089296;27;20457;-85
2022/11/20 02:31:39;;;;;;;32.00;16.47;;;7.50;59.40;;;;;;5093886;27;20471;-85
2022/11/20 02:34:06;;;;;;;33.30;16.80;;;7.70;59.10;;;;;;5116641;27;20442;-88
2022/11/20 02:36:35;;;;;;;35.77;15.87;;;7.70;59.00;;;;;;5097854;27;21265;-86
2022/11/20 02:39:04;;;;;;;33.43;16.60;;;7.70;58.80;;;;;;5078096;27;20542;-85
2022/11/20 02:41:32;;;;;;;36.63;16.33;;;7.70;58.50;;;;;;5115005;27;20454;-86
2022/11/20 02:44:00;;;;;;;35.73;16.80;;;7.80;58.40;;;;;;5117378;27;20515;-85
2022/11/20 02:46:28;;;;;;;37.60;18.07;;;7.80;58.30;;;;;;5116644;27;20470;-88
2022/11/20 02:48:55;;;;;;;33.67;14.87;;;7.80;58.30;;;;;;5105555;27;20921;-86
2022/11/20 02:51:23;;;;;;;33.93;16.50;;;7.80;58.20;;;;;;5112442;27;20451;-88
2022/11/20 02:53:50;;;;;;;32.30;16.40;;;7.80;58.00;;;;;;5116621;27;20498;-86
2022/11/20 02:56:19;;;;;;;30.13;16.47;;;7.70;58.20;;;;;;5078707;27;20494;-88
2022/11/20 02:58:46;;;;;;;35.47;15.90;;;7.40;58.90;;;;;;5113448;27;21020;-85
2022/11/20 03:01:13;;;;;;;33.03;16.63;;;7.30;59.40;;;;;;5115739;27;20447;-85
2022/11/20 03:03:40;;;;;;;33.70;18.47;;;7.20;59.70;;;;;;5116336;27;20426;-87
2022/11/20 03:06:08;;;;;;;37.57;17.97;;;7.10;60.10;;;;;;5115666;27;21001;-86
2022/11/20 03:08:35;;;;;;;34.60;15.73;;;7.30;59.90;;;;;;5094646;27;20453;-84
2022/11/20 03:11:07;;;;;;;35.77;14.67;;;7.20;60.00;;;;;;5095310;27;20435;-86
2022/11/20 03:13:36;;;;;;;39.10;17.27;;;7.10;60.30;;;;;;5093342;27;20977;-86
2022/11/20 03:16:12;;;;;;;34.70;16.73;;;7.10;60.20;;;;;;5101509;27;20470;-86
2022/11/20 03:18:40;;;;;;;31.83;15.13;;;7.30;60.10;;;;;;5095012;27;20446;-85
2022/11/20 03:21:08;;;;;;;38.00;16.23;;;7.30;59.70;;;;;;5093591;27;20876;-85
2022/11/20 03:23:36;;;;;;;31.90;14.23;;;7.20;60.60;;;;;;5094684;27;20443;-86
2022/11/20 03:26:11;;;;;;;39.10;16.50;;;7.40;60.10;;;;;;5085551;27;20470;-86
2022/11/20 03:28:40;;;;;;;32.47;14.90;;;7.50;59.70;;;;;;5096823;27;20929;-88
2022/11/20 03:31:09;;;;;;;30.87;15.53;;;7.60;59.00;;;;;;5112748;27;20537;-87
2022/11/20 03:33:36;;;;;;;40.70;17.20;;;7.70;58.70;;;;;;5111887;27;20471;-85
2022/11/20 03:36:04;;;;;;;41.17;16.43;;;7.70;58.60;;;;;;5112924;27;20861;-88
2022/11/20 03:38:32;;;;;;;32.50;15.57;;;7.50;59.20;;;;;;5093471;27;21013;-88
2022/11/20 03:41:01;;;;;;;35.77;15.97;;;7.30;59.60;;;;;;5115440;27;20451;-87
2022/11/20 03:43:28;;;;;;;35.27;15.43;;;7.20;60.10;;;;;;5097765;27;21091;-86
2022/11/20 03:45:57;;;;;;;37.80;16.70;;;7.10;60.50;;;;;;5095134;27;20549;-87
2022/11/20 03:48:24;;;;;;;31.00;15.53;;;7.30;60.60;;;;;;5097315;27;20434;-85
2022/11/20 03:50:52;;;;;;;33.50;16.30;;;7.40;59.60;;;;;;5096001;27;20878;-86
2022/11/20 03:53:19;;;;;;;37.90;16.30;;;7.50;59.20;;;;;;5113881;27;20461;-85
2022/11/20 03:55:50;;;;;;;33.50;17.70;;;7.40;59.60;;;;;;5095646;27;20459;-86
2022/11/20 03:58:17;;;;;;;28.60;14.77;;;7.30;59.70;;;;;;5115957;27;20441;-86
2022/11/20 04:00:44;;;;;;;32.20;16.13;;;7.50;59.40;;;;;;5111617;27;20457;-86
2022/11/20 04:03:13;;;;;;;37.77;16.43;;;7.60;59.10;;;;;;5095417;27;20478;-86
2022/11/20 04:05:40;;;;;;;36.63;16.60;;;7.60;59.10;;;;;;5098507;27;20464;-86
2022/11/20 04:08:07;;;;;;;34.93;16.07;;;7.60;59.00;;;;;;5111595;27;20957;-87
2022/11/20 04:10:34;;;;;;;36.00;16.43;;;7.60;59.10;;;;;;5111991;27;20477;-89
2022/11/20 04:13:01;;;;;;;32.27;15.37;;;7.60;59.30;;;;;;5112254;27;20550;-85
2022/11/20 04:15:28;;;;;;;34.27;14.67;;;7.70;59.00;;;;;;5112320;27;20468;-86
2022/11/20 04:17:55;;;;;;;38.53;16.33;;;7.70;59.00;;;;;;5098870;27;20441;-86
2022/11/20 04:20:24;;;;;;;30.30;15.00;;;7.80;58.90;;;;;;5093507;27;20469;-88
2022/11/20 04:22:54;;;;;;;33.80;15.70;;;7.50;59.10;;;;;;5113096;27;20461;-86
2022/11/20 04:25:21;;;;;;;32.30;14.37;;;7.50;59.60;;;;;;5098302;27;20985;-86
2022/11/20 04:27:48;;;;;;;35.13;15.30;;;7.40;59.90;;;;;;5117445;27;20455;-86
2022/11/20 04:30:15;;;;;;;37.63;15.27;;;7.50;59.60;;;;;;5069915;28;20441;-86
2022/11/20 04:32:42;;;;;;;33.73;15.53;;;7.20;60.10;;;;;;5095449;27;20462;-86
2022/11/20 04:35:09;;;;;;;36.37;15.20;;;7.20;60.80;;;;;;5117091;27;20452;-87
2022/11/20 04:37:37;;;;;;;26.83;15.60;;;7.50;59.80;;;;;;5097046;27;20474;-86
2022/11/20 04:40:05;;;;;;;39.93;16.27;;;7.50;59.40;;;;;;5094018;28;20450;-85
2022/11/20 04:42:32;;;;;;;29.20;14.00;;;7.50;59.70;;;;;;5094915;27;20443;-86
2022/11/20 04:44:59;;;;;;;33.87;14.17;;;7.40;60.10;;;;;;5112313;27;20450;-86
2022/11/20 04:47:26;;;;;;;37.30;16.37;;;7.30;60.40;;;;;;5096393;27;20611;-85
2022/11/20 04:49:53;;;;;;;34.93;14.90;;;7.40;60.10;;;;;;5113032;27;21013;-86
2022/11/20 04:52:20;;;;;;;38.27;16.17;;;7.30;59.90;;;;;;5073872;27;20469;-85
2022/11/20 04:54:50;;;;;;;37.63;15.87;;;7.20;60.90;;;;;;5112979;27;20461;-85
2022/11/20 04:57:16;;;;;;;30.63;14.47;;;7.30;60.60;;;;;;5114496;27;20549;-85
2022/11/20 04:59:43;;;;;;;35.00;14.13;;;7.50;59.80;;;;;;5094352;27;20442;-86
2022/11/20 05:02:11;;;;;;;40.83;18.13;;;7.50;59.80;;;;;;5103878;28;20453;-85
2022/11/20 05:04:38;;;;;;;35.63;15.53;;;7.60;59.70;;;;;;5103886;27;20521;-86
2022/11/20 05:07:05;;;;;;;29.00;14.47;;;7.50;59.90;;;;;;5113579;27;20462;-85
2022/11/20 05:09:32;;;;;;;29.20;14.40;;;7.60;59.70;;;;;;5115234;27;20446;-89
2022/11/20 05:12:00;;;;;;;31.70;14.60;;;7.60;59.30;;;;;;5095456;28;20466;-85
2022/11/20 05:14:27;;;;;;;36.87;16.00;;;7.70;59.00;;;;;;5092903;27;20824;-85
2022/11/20 05:16:54;;;;;;;32.20;15.53;;;7.40;59.20;;;;;;5113008;27;20472;-85
2022/11/20 05:19:21;;;;;;;28.60;15.13;;;7.30;59.80;;;;;;5112165;27;20448;-83
2022/11/20 05:21:48;;;;;;;32.70;13.90;;;7.30;60.10;;;;;;5110995;27;20534;-88
2022/11/20 05:24:15;;;;;;;32.97;16.67;;;7.40;60.20;;;;;;5087628;28;20945;-84
2022/11/20 05:26:42;;;;;;;33.60;14.80;;;7.30;60.60;;;;;;5113500;27;21170;-84
2022/11/20 05:29:13;;;;;;;33.60;16.80;;;7.40;60.20;;;;;;5092468;28;20451;-84
2022/11/20 05:31:40;;;;;;;35.73;16.50;;;7.40;60.60;;;;;;5079202;27;20450;-84
2022/11/20 05:34:08;;;;;;;35.20;16.90;;;7.40;60.30;;;;;;5094521;28;20481;-86
2022/11/20 05:36:35;;;;;;;28.47;16.20;;;7.20;60.40;;;;;;5095265;27;20453;-86
2022/11/20 05:39:02;;;;;;;30.63;14.90;;;7.30;60.50;;;;;;5081542;28;20457;-84
2022/11/20 05:41:29;;;;;;;33.20;15.30;;;7.30;60.90;;;;;;5102743;27;20446;-85
2022/11/20 05:43:57;;;;;;;48.27;25.30;;;7.40;61.20;;;;;;5101153;27;20442;-84
2022/11/20 05:46:26;;;;;;;35.80;17.57;;;7.40;60.40;;;;;;5117506;27;20466;-85
2022/11/20 05:48:53;;;;;;;37.50;16.00;;;7.40;60.50;;;;;;5101548;27;20510;-85
2022/11/20 05:51:21;;;;;;;32.57;15.80;;;7.50;60.50;;;;;;5099682;27;20449;-85
2022/11/20 05:53:48;;;;;;;32.13;15.47;;;7.60;60.50;;;;;;5100390;27;20480;-89
2022/11/20 05:56:17;;;;;;;33.13;16.27;;;7.70;60.10;;;;;;5092701;27;20466;-85
2022/11/20 05:58:45;;;;;;;37.47;16.00;;;7.60;59.80;;;;;;5066864;27;20443;-85
2022/11/20 06:01:16;;;;;;;39.13;17.00;;;7.70;59.90;;;;;;5109670;27;20507;-87
2022/11/20 06:03:47;;;;;;;31.20;16.40;;;7.70;59.80;;;;;;5118211;27;20541;-85
2022/11/20 06:06:15;;;;;;;30.37;15.87;;;7.70;59.80;;;;;;5118824;27;20470;-85
2022/11/20 06:08:42;;;;;;;37.20;16.70;;;7.80;59.60;;;;;;5116664;27;20435;-86
2022/11/20 06:11:11;;;;;;;35.77;16.37;;;7.90;59.50;;;;;;5114569;27;20445;-85
2022/11/20 06:13:39;;;;;;;35.40;15.97;;;7.90;59.40;;;;;;5098869;27;20490;-86
2022/11/20 06:16:06;;;;;;;35.97;15.73;;;7.90;59.70;;;;;;5102172;27;20474;-85
2022/11/20 06:18:33;;;;;;;29.50;15.27;;;7.60;60.00;;;;;;5098523;27;20450;-86
2022/11/20 06:21:03;;;;;;;34.77;15.77;;;7.60;60.40;;;;;;5116922;27;20469;-85
2022/11/20 06:23:32;;;;;;;39.33;16.40;;;7.60;60.40;;;;;;5081738;27;20453;-88
2022/11/20 06:26:02;;;;;;;31.73;15.63;;;7.60;60.90;;;;;;5116378;27;20821;-86
2022/11/20 06:28:30;;;;;;;34.33;16.40;;;7.70;60.30;;;;;;5101263;27;20519;-90
2022/11/20 06:30:57;;;;;;;39.50;17.70;;;7.70;59.90;;;;;;5073770;27;20443;-85
2022/11/20 06:33:25;;;;;;;39.90;16.20;;;7.80;59.50;;;;;;5098993;27;21302;-85
2022/11/20 06:35:53;;;;;;;30.97;16.80;;;7.70;60.00;;;;;;5102186;27;20505;-86
2022/11/20 06:38:21;;;;;;;31.27;16.07;;;7.80;59.90;;;;;;5101327;27;20452;-86
2022/11/20 06:40:48;;;;;;;42.33;20.77;;;7.90;59.70;;;;;;5099045;27;20446;-87
2022/11/20 06:43:15;;;;;;;44.47;17.87;;;7.60;59.90;;;;;;5091520;27;20465;-84
2022/11/20 06:45:42;;;;;;;48.63;18.43;;;7.60;60.50;;;;;;5115942;27;20805;-85
2022/11/20 06:48:10;;;;;;;48.50;20.60;;;7.50;60.90;;;;;;5116111;27;20450;-85
2022/11/20 06:50:37;;;;;;;33.93;17.57;;;7.60;61.20;;;;;;5085299;27;20446;-88
2022/11/20 06:53:05;;;;;;;34.93;15.80;;;7.60;60.80;;;;;;5114135;27;20482;-85
2022/11/20 06:55:34;;;;;;;36.53;16.20;;;7.40;61.00;;;;;;5114489;27;20456;-84
2022/11/20 06:58:01;;;;;;;44.77;19.20;;;7.40;61.30;;;;;;5115901;27;20857;-85
2022/11/20 07:00:28;;;;;;;37.10;16.37;;;7.30;61.20;;;;;;5101866;27;20458;-86
2022/11/20 07:02:55;;;;;;;44.50;18.37;;;7.20;61.90;;;;;;5117810;27;20458;-86
2022/11/20 07:05:22;;;;;;;34.47;16.50;;;7.40;61.60;;;;;;5118858;27;20446;-85
2022/11/20 07:07:48;;;;;;;34.87;16.57;;;7.60;60.70;;;;;;5117740;27;20466;-85
2022/11/20 07:10:16;;;;;;;49.20;17.20;;;7.50;60.20;;;;;;5116876;27;20447;-85
2022/11/20 07:12:50;;;;;;;33.90;16.47;;;7.70;60.20;;;;;;5097094;27;20546;-87
2022/11/20 07:15:17;;;;;;;44.20;17.70;;;7.80;60.10;;;;;;5099628;27;20885;-85
2022/11/20 07:17:44;;;;;;;34.17;17.40;;;7.90;60.20;;;;;;5114378;27;20469;-85
2022/11/20 07:20:12;;;;;;;43.67;17.67;;;8.00;59.70;;;;;;5079500;27;20461;-86
2022/11/20 07:22:39;;;;;;;44.77;17.47;;;7.70;60.20;;;;;;5115794;27;20447;-86
2022/11/20 07:25:07;;;;;;;37.23;18.40;;;7.50;61.00;;;;;;5097800;27;20457;-87
2022/11/20 07:27:34;;;;;;;37.63;17.80;;;7.60;60.80;;;;;;5113186;27;20466;-86
2022/11/20 07:30:03;;;;;;;37.40;17.50;;;7.70;60.50;;;;;;5115992;27;20450;-85
2022/11/20 07:32:30;;;;;;;27.87;15.20;;;7.60;60.30;;;;;;5112208;27;20527;-86
2022/11/20 07:34:57;;;;;;;31.93;14.93;;;7.40;60.80;;;;;;5114943;27;20469;-89
2022/11/20 07:37:24;;;;;;;32.47;16.23;;;7.30;61.30;;;;;;5081993;27;20456;-86
2022/11/20 07:39:51;;;;;;;34.17;16.80;;;7.40;61.60;;;;;;5118651;27;20466;-86
2022/11/20 07:42:18;;;;;;;35.27;18.20;;;7.50;61.20;;;;;;5095761;27;20438;-89
2022/11/20 07:44:44;;;;;;;36.67;17.10;;;7.70;61.00;;;;;;5100623;27;20446;-87
2022/11/20 07:47:13;;;;;;;38.07;17.30;;;7.70;60.60;;;;;;5091491;27;20484;-86
2022/11/20 07:49:40;;;;;;;53.70;25.70;;;7.70;60.80;;;;;;5095359;27;20807;-88
2022/11/20 07:52:07;;;;;;;45.40;20.57;;;7.80;60.80;;;;;;5098120;27;20442;-86
2022/11/20 07:54:34;;;;;;;38.57;19.20;;;7.90;60.60;;;;;;5114990;27;20466;-86
2022/11/20 07:57:01;;;;;;;36.53;19.20;;;7.90;60.20;;;;;;5099313;27;21089;-85
2022/11/20 07:59:28;;;;;;;51.43;20.77;;;7.80;60.60;;;;;;5090389;27;20469;-88
2022/11/20 08:01:55;;;;;;;40.63;18.10;;;7.90;60.70;;;;;;5115892;27;20497;-88
2022/11/20 08:04:23;;;;;;;39.30;16.43;;;8.00;60.20;;;;;;5087782;27;20669;-87
2022/11/20 08:06:52;;;;;;;41.10;17.97;;;8.00;59.80;;;;;;5114836;27;22111;-88
2022/11/20 08:09:19;;;;;;;42.03;18.33;;;8.00;60.00;;;;;;5115595;27;20446;-86
2022/11/20 08:14:32;;;;;;;41.30;18.00;;;7.90;60.00;;;;;;5116380;27;20451;-86
2022/11/20 08:16:59;;;;;;;36.57;17.73;;;7.90;60.40;;;;;;5111764;27;20472;-88
2022/11/20 08:19:28;;;;;;;38.63;17.50;;;8.00;60.30;;;;;;5117106;27;20455;-86
2022/11/20 08:21:56;;;;;;;40.23;16.80;;;8.10;60.00;;;;;;5095713;27;20451;-86
2022/11/20 08:24:24;;;;;;;44.93;17.40;;;8.10;59.70;;;;;;5080323;27;20446;-86
2022/11/20 08:26:51;;;;;;;32.30;15.00;;;8.20;59.80;;;;;;5115037;27;20466;-86
2022/11/20 08:29:18;;;;;;;29.90;14.80;;;8.10;59.60;;;;;;5089270;27;20480;-85
2022/11/20 08:31:45;;;;;;;46.10;17.93;;;8.00;59.10;;;;;;5112565;27;20496;-86
2022/11/20 08:34:12;;;;;;;35.00;16.40;;;7.90;59.90;;;;;;5115302;27;20481;-85
2022/11/20 08:36:41;;;;;;;27.00;13.03;;;7.90;60.40;;;;;;5097052;27;20469;-89
2022/11/20 08:39:08;;;;;;;40.23;15.60;;;7.70;60.80;;;;;;5103668;28;21201;-87
2022/11/20 08:41:36;;;;;;;31.83;15.30;;;7.90;60.80;;;;;;5114772;27;21087;-85
2022/11/20 08:44:06;;;;;;;32.40;15.00;;;8.00;60.20;;;;;;5113968;27;20458;-88
2022/11/20 08:46:36;;;;;;;33.03;17.03;;;7.90;59.70;;;;;;5097815;27;20478;-85
2022/11/20 08:49:03;;;;;;;34.67;15.83;;;7.80;60.60;;;;;;5089527;27;20481;-86
2022/11/20 08:51:30;;;;;;;36.27;17.47;;;7.60;61.70;;;;;;5095185;27;20964;-87
2022/11/20 08:53:59;;;;;;;31.27;13.03;;;7.60;61.70;;;;;;5115315;27;20473;-86
2022/11/20 08:56:26;;;;;;;37.10;18.00;;;7.50;60.50;;;;;;5112470;27;20466;-84
2022/11/20 08:58:53;;;;;;;35.67;14.87;;;7.70;61.00;;;;;;5112533;27;20438;-86
2022/11/20 09:01:20;;;;;;;27.03;14.80;;;7.70;61.10;;;;;;5114817;27;20473;-85
2022/11/20 09:03:48;;;;;;;41.47;20.87;;;7.40;62.40;;;;;;5079654;27;20453;-85
2022/11/20 09:06:15;;;;;;;32.87;17.07;;;7.50;62.40;;;;;;5096544;27;20469;-85
2022/11/20 09:08:43;;;;;;;41.10;17.70;;;7.50;62.20;;;;;;5080026;27;20453;-85
2022/11/20 09:11:11;;;;;;;28.83;15.03;;;7.50;61.90;;;;;;5098042;28;20487;-85
2022/11/20 09:13:38;;;;;;;41.37;18.47;;;7.70;61.90;;;;;;5096095;27;20441;-84
2022/11/20 09:16:08;;;;;;;66.07;31.53;;;7.70;61.50;;;;;;5095294;28;20556;-86
2022/11/20 09:18:37;;;;;;;36.07;19.67;;;7.70;61.50;;;;;;5110109;27;20444;-84
2022/11/20 09:21:06;;;;;;;27.80;13.77;;;7.70;61.80;;;;;;5113237;27;20449;-86
2022/11/20 09:23:35;;;;;;;28.20;13.77;;;7.80;61.00;;;;;;5111003;27;21063;-88
2022/11/20 09:26:04;;;;;;;69.10;31.00;;;7.50;61.50;;;;;;5092268;28;20476;-88
2022/11/20 09:28:33;;;;;;;28.80;16.00;;;7.60;62.00;;;;;;5086542;27;20455;-87
2022/11/20 09:31:00;;;;;;;29.63;16.43;;;7.40;61.90;;;;;;5093450;28;20453;-87
2022/11/20 09:33:27;;;;;;;31.63;15.80;;;7.20;62.80;;;;;;5077252;27;20434;-86
2022/11/20 09:35:54;;;;;;;33.23;17.43;;;7.40;63.20;;;;;;5093089;27;20449;-86
2022/11/20 09:38:21;;;;;;;30.27;13.40;;;7.50;62.40;;;;;;5099123;27;20461;-86
2022/11/20 09:40:56;;;;;;;25.60;13.20;;;7.40;62.10;;;;;;5114685;27;21157;-87
2022/11/20 09:43:29;;;;;;;26.50;13.23;;;7.50;62.60;;;;;;5114714;27;20512;-86
2022/11/20 09:46:06;;;;;;;70.17;34.00;;;7.70;61.90;;;;;;5099867;28;21249;-87
2022/11/20 09:48:49;;;;;;;37.33;22.17;;;7.80;62.30;;;;;;5110595;27;20596;-88
2022/11/20 09:51:28;;;;;;;31.70;15.40;;;7.80;61.40;;;;;;5102913;28;21102;-86
2022/11/20 09:54:07;;;;;;;27.90;12.50;;;7.80;62.30;;;;;;5112326;27;20528;-84
2022/11/20 09:56:36;;;;;;;24.00;12.10;;;8.00;61.80;;;;;;5093863;27;20473;-86
2022/11/20 09:59:07;;;;;;;27.73;12.10;;;8.10;61.80;;;;;;5072507;28;20450;-89
2022/11/20 10:01:40;;;;;;;24.27;9.90;;;8.40;60.90;;;;;;5074701;27;20819;-88
2022/11/20 10:04:14;;;;;;;22.73;9.87;;;8.40;60.00;;;;;;5111933;27;20466;-86
2022/11/20 10:06:48;;;;;;;18.87;10.60;;;8.40;59.60;;;;;;5064507;27;20473;-86
2022/11/20 10:09:23;;;;;;;20.40;10.80;;;8.10;60.40;;;;;;5112553;27;20962;-87
2022/11/20 10:12:01;;;;;;;40.00;26.30;;;7.90;60.90;;;;;;5112946;27;21831;-85
2022/11/20 10:14:38;;;;;;;15.43;9.57;;;8.00;61.10;;;;;;5087650;27;20507;-85
2022/11/20 10:17:16;;;;;;;20.10;12.53;;;8.00;61.50;;;;;;5114126;27;20496;-84
2022/11/20 10:20:02;;;;;;;18.17;10.20;;;8.30;61.50;;;;;;5113156;27;20442;-86
2022/11/20 10:22:43;;;;;;;19.73;10.73;;;8.60;60.40;;;;;;5095964;27;20446;-86
2022/11/20 10:25:15;;;;;;;25.17;10.07;;;8.40;60.30;;;;;;5082142;27;20437;-85
2022/11/20 10:28:00;;;;;;;25.87;11.23;;;8.50;60.40;;;;;;5118934;27;20950;-84
2022/11/20 10:30:30;;;;;;;19.57;9.40;;;8.60;59.20;;;;;;5116275;27;21101;-84
2022/11/20 10:33:05;;;;;;;21.10;12.10;;;8.30;60.50;;;;;;5097413;27;20452;-85
2022/11/20 10:35:37;;;;;;;18.63;10.67;;;8.30;61.40;;;;;;5099160;27;20943;-84
2022/11/20 10:38:12;;;;;;;18.20;8.50;;;8.40;61.60;;;;;;5101740;27;20453;-85
2022/11/20 10:40:42;;;;;;;18.10;9.67;;;8.60;59.80;;;;;;5099694;27;20547;-85
2022/11/20 10:43:13;;;;;;;24.73;12.40;;;8.50;59.70;;;;;;5100852;27;20956;-87
2022/11/20 10:45:55;;;;;;;17.63;10.27;;;8.50;60.70;;;;;;5101058;27;20779;-87
2022/11/20 10:48:25;;;;;;;21.77;11.07;;;8.40;61.20;;;;;;5102267;27;20528;-85
2022/11/20 10:51:12;;;;;;;26.17;10.30;;;8.40;61.30;;;;;;5120684;27;20443;-85
2022/11/20 10:54:06;;;;;;;20.27;10.20;;;8.60;61.10;;;;;;5108690;27;20454;-85
2022/11/20 10:56:39;;;;;;;17.23;10.30;;;8.80;60.60;;;;;;5095025;27;21334;-84
2022/11/20 10:59:39;;;;;;;19.80;11.53;;;8.40;60.80;;;;;;5099877;27;20490;-85
2022/11/20 11:02:20;;;;;;;16.50;10.10;;;7.80;62.40;;;;;;5116090;27;20810;-85
2022/11/20 11:04:50;;;;;;;23.17;10.93;;;7.60;64.00;;;;;;5095599;27;20462;-87
2022/11/20 11:07:21;;;;;;;17.17;11.13;;;7.50;65.60;;;;;;5071710;27;20473;-87
2022/11/20 11:09:50;;;;;;;17.67;9.60;;;7.80;64.90;;;;;;5116420;27;21102;-85
2022/11/20 11:12:18;;;;;;;19.80;10.50;;;8.00;63.80;;;;;;5115542;27;20675;-88
2022/11/20 11:14:50;;;;;;;18.53;9.77;;;7.90;63.80;;;;;;5082211;27;20477;-86
2022/11/20 11:17:29;;;;;;;28.30;18.30;;;8.00;64.20;;;;;;5100783;27;20475;-83
2022/11/20 11:20:19;;;;;;;25.43;15.13;;;8.20;63.80;;;;;;5118571;27;20446;-87
2022/11/20 11:22:48;;;;;;;19.90;10.80;;;8.40;63.60;;;;;;5106020;27;20443;-85
2022/11/20 11:25:28;;;;;;;16.90;8.70;;;8.40;63.90;;;;;;5100543;27;20469;-85
2022/11/20 11:27:57;;;;;;;20.23;9.67;;;8.50;63.40;;;;;;5105324;27;20471;-87
2022/11/20 11:30:26;;;;;;;20.07;10.13;;;8.40;63.20;;;;;;5096929;27;20586;-86
2022/11/20 11:33:05;;;;;;;18.93;10.27;;;8.60;63.40;;;;;;5102531;27;20442;-86
2022/11/20 11:35:33;;;;;;;19.13;10.27;;;8.70;62.80;;;;;;5116088;27;20477;-88
2022/11/20 11:38:06;;;;;;;16.30;9.17;;;8.80;62.30;;;;;;5094358;27;20465;-85
2022/11/20 11:40:36;;;;;;;16.00;9.90;;;8.90;61.50;;;;;;5114455;27;20508;-85
2022/11/20 11:45:04;;;;;;;14.53;8.67;;;8.90;61.20;;;;;;5097077;28;20942;-85
2022/11/20 11:45:54;;;;;;;14.70;9.87;;;8.80;61.70;;;;;;5082682;27;20458;-85
2022/11/20 11:48:21;;;;;;;17.40;10.00;;;8.80;61.20;;;;;;5100927;27;20957;-86
2022/11/20 11:50:52;;;;;;;19.73;10.97;;;8.90;60.90;;;;;;5104014;27;20442;-86
2022/11/20 11:53:21;;;;;;;20.57;10.73;;;8.90;60.50;;;;;;5117982;27;20442;-87
2022/11/20 11:55:55;;;;;;;18.60;10.40;;;9.00;60.80;;;;;;5100706;27;20462;-87
2022/11/20 11:58:39;;;;;;;19.40;10.43;;;9.10;61.40;;;;;;5096100;27;20499;-85
2022/11/20 12:01:18;;;;;;;15.97;9.83;;;9.20;61.20;;;;;;5099629;27;20892;-88
2022/11/20 12:03:54;;;;;;;15.93;8.90;;;9.00;61.60;;;;;;5099160;27;20459;-89
2022/11/20 12:06:24;;;;;;;14.77;8.90;;;8.60;62.00;;;;;;5094722;27;20489;-88
2022/11/20 12:08:56;;;;;;;15.50;9.77;;;8.30;63.60;;;;;;5105217;27;21037;-86
2022/11/20 12:11:31;;;;;;;17.57;8.20;;;8.30;63.90;;;;;;5098071;27;20502;-86
2022/11/20 12:14:04;;;;;;;18.30;9.10;;;8.30;63.80;;;;;;5114162;27;20447;-86
2022/11/20 12:16:36;;;;;;;18.80;10.80;;;8.50;64.00;;;;;;5114273;27;20501;-87
2022/11/20 12:19:05;;;;;;;18.80;11.47;;;8.80;63.60;;;;;;5097278;27;20469;-85
2022/11/20 12:21:44;;;;;;;13.80;9.03;;;8.90;63.20;;;;;;5111911;27;20453;-90
2022/11/20 12:24:32;;;;;;;17.43;10.27;;;9.00;62.60;;;;;;5093880;27;20834;-86
2022/11/20 12:27:14;;;;;;;18.03;9.10;;;9.20;62.40;;;;;;5113980;27;20474;-87
2022/11/20 12:29:53;;;;;;;31.10;15.10;;;9.10;62.70;;;;;;5111667;27;20442;-85
2022/11/20 12:32:42;;;;;;;31.97;16.53;;;9.20;62.50;;;;;;5114460;27;21001;-88
2022/11/20 12:35:22;;;;;;;25.30;13.90;;;9.10;62.20;;;;;;5079314;27;20458;-87
2022/11/20 12:38:02;;;;;;;18.07;12.87;;;8.60;64.20;;;;;;5112715;27;20462;-85
2022/11/20 12:40:36;;;;;;;15.93;9.50;;;8.90;64.50;;;;;;5111722;27;20443;-85
2022/11/20 12:46:23;;;;;;;15.27;9.87;;;9.00;64.30;;;;;;5112841;27;20450;-87
2022/11/20 12:49:10;;;;;;;17.77;9.60;;;9.20;63.30;;;;;;5109746;27;20517;-88
2022/11/20 12:52:06;;;;;;;18.47;10.13;;;9.40;63.40;;;;;;5088395;27;20482;-85
2022/11/20 12:54:59;;;;;;;21.40;12.37;;;9.40;63.50;;;;;;5100562;27;20468;-84
2022/11/20 12:57:36;;;;;;;18.53;10.63;;;9.10;63.40;;;;;;5099517;27;20474;-83
2022/11/20 13:00:11;;;;;;;22.67;10.73;;;8.90;64.30;;;;;;5107312;27;20446;-86
2022/11/20 13:02:59;;;;;;;17.70;9.33;;;8.70;65.40;;;;;;5089326;27;21163;-85